Time;durP1;ratioP1;P1;durP2;ratioP2;P2;SDS_P1;SDS_P2;PMS_P1;PMS_P2;Temp;Humidity;BMP_temperature;BMP_pressure;BME280_temperature;BME280_humidity;BME280_pressure;Samples;Min_cycle;Max_cycle;Signal;HPM_P1;HPM_P2
2022/06/07 00:00:27;;;;;;;12.02;7.50;;;16.40;99.90;;;;;;10447274;28;20135;-84
2022/06/07 00:05:28;;;;;;;10.48;7.20;;;16.20;99.90;;;;;;10448916;28;20112;-83
2022/06/07 00:10:29;;;;;;;19.35;10.35;;;16.10;99.90;;;;;;10437439;28;20112;-86
2022/06/07 00:15:29;;;;;;;15.40;9.07;;;16.00;99.90;;;;;;10432130;28;20059;-83
2022/06/07 00:20:30;;;;;;;17.70;12.18;;;15.90;99.90;;;;;;10434580;28;20045;-84
2022/06/07 00:25:31;;;;;;;24.27;12.40;;;15.90;99.90;;;;;;10442987;28;20036;-87
2022/06/07 00:30:32;;;;;;;20.27;12.07;;;15.90;99.90;;;;;;10430807;28;20112;-85
2022/06/07 00:35:33;;;;;;;20.95;12.00;;;16.00;99.90;;;;;;10431588;28;20043;-82
2022/06/07 00:40:35;;;;;;;20.77;13.77;;;16.00;99.90;;;;;;10437775;28;20048;-83
2022/06/07 00:45:36;;;;;;;23.23;14.95;;;16.00;99.90;;;;;;10423957;28;20599;-84
2022/06/07 00:50:58;;;;;;;21.23;14.20;;;15.90;99.90;;;;;;10441532;28;20060;-82
2022/06/07 00:55:59;;;;;;;19.10;12.60;;;15.80;99.90;;;;;;10448382;28;20055;-85
2022/06/07 01:01:00;;;;;;;21.65;15.77;;;15.70;99.90;;;;;;10426659;28;20515;-84
2022/06/07 01:10:43;;;;;;;24.23;15.82;;;15.60;99.90;;;;;;10442462;28;20028;-86
2022/06/07 01:11:21;;;;;;;30.85;19.15;;;15.60;99.90;;;;;;10447642;28;20502;-84
2022/06/07 01:16:21;;;;;;;22.85;15.85;;;15.50;99.90;;;;;;10439957;28;20048;-86
2022/06/07 01:21:31;;;;;;;24.75;16.30;;;15.50;99.90;;;;;;10446657;28;20202;-83
2022/06/07 01:26:32;;;;;;;33.83;21.63;;;15.50;99.90;;;;;;10450498;28;20388;-84
2022/06/07 01:31:33;;;;;;;39.25;22.40;;;15.60;99.90;;;;;;10455102;28;20104;-84
2022/06/07 01:36:33;;;;;;;38.53;23.80;;;15.60;99.90;;;;;;10451512;28;20028;-86
2022/06/07 01:46:56;;;;;;;26.52;18.05;;;15.60;99.90;;;;;;10454524;28;20044;-85
2022/06/07 01:51:58;;;;;;;27.27;15.55;;;15.50;99.90;;;;;;10453614;28;20060;-84
2022/06/07 01:56:59;;;;;;;30.23;19.05;;;15.40;99.90;;;;;;10449781;28;20052;-87
2022/06/07 02:02:00;;;;;;;30.67;19.45;;;15.50;99.90;;;;;;10447134;28;20037;-87
2022/06/07 02:07:01;;;;;;;34.40;20.17;;;15.40;99.90;;;;;;10436126;28;20032;-86
2022/06/07 02:12:03;;;;;;;28.27;18.23;;;15.30;99.90;;;;;;10453077;28;20032;-87
2022/06/07 02:17:04;;;;;;;28.58;18.10;;;15.30;99.90;;;;;;10443599;28;20036;-86
2022/06/07 02:22:05;;;;;;;33.65;20.90;;;15.30;99.90;;;;;;10434342;28;20040;-84
2022/06/07 02:27:17;;;;;;;30.02;19.02;;;15.20;99.90;;;;;;10445291;28;20504;-84
2022/06/07 02:32:20;;;;;;;32.78;20.55;;;15.10;99.90;;;;;;10448654;28;20032;-84
2022/06/07 02:37:22;;;;;;;24.88;17.67;;;15.10;99.90;;;;;;10432662;28;20079;-84
2022/06/07 02:42:26;;;;;;;32.92;20.05;;;15.00;99.90;;;;;;10440966;28;20029;-87
2022/06/07 02:47:27;;;;;;;30.10;20.10;;;15.00;99.90;;;;;;10458947;28;20032;-84
2022/06/07 02:52:28;;;;;;;33.80;21.63;;;15.00;99.90;;;;;;10446500;28;20079;-85
2022/06/07 02:57:28;;;;;;;38.22;23.23;;;15.00;99.90;;;;;;10444582;28;20057;-84
2022/06/07 03:02:29;;;;;;;42.78;25.95;;;15.00;99.90;;;;;;10447182;28;20044;-84
2022/06/07 03:07:29;;;;;;;49.17;28.95;;;15.00;99.90;;;;;;10444959;28;20029;-87
2022/06/07 03:12:31;;;;;;;54.22;32.20;;;15.10;99.90;;;;;;10431834;28;20032;-83
2022/06/07 03:17:32;;;;;;;35.92;24.75;;;15.20;99.90;;;;;;10443777;28;20377;-84
2022/06/07 03:22:34;;;;;;;43.58;25.27;;;15.30;99.90;;;;;;10436978;28;20037;-83
2022/06/07 03:27:36;;;;;;;33.10;22.33;;;15.30;99.90;;;;;;10446564;28;20514;-85
2022/06/07 03:32:38;;;;;;;41.20;26.02;;;15.40;99.90;;;;;;10444297;28;20025;-87
2022/06/07 03:37:39;;;;;;;34.45;22.52;;;15.30;99.90;;;;;;10451258;28;20059;-84
2022/06/07 03:42:41;;;;;;;36.28;23.92;;;15.30;99.90;;;;;;10449435;28;20037;-84
2022/06/07 03:47:41;;;;;;;42.30;26.35;;;15.40;99.90;;;;;;10448830;28;20032;-82
2022/06/07 03:52:42;;;;;;;38.35;25.40;;;15.40;99.90;;;;;;10466982;28;20029;-83
2022/06/07 03:57:43;;;;;;;61.28;33.30;;;15.40;99.90;;;;;;10451341;28;20523;-84
2022/06/07 04:02:43;;;;;;;43.13;27.20;;;15.40;99.90;;;;;;10444911;28;20151;-84
2022/06/07 04:13:04;;;;;;;34.60;23.13;;;15.50;99.90;;;;;;10447138;28;20396;-84
2022/06/07 04:18:04;;;;;;;38.55;24.33;;;15.60;99.90;;;;;;10446870;28;20037;-83
2022/06/07 04:23:06;;;;;;;41.20;25.83;;;15.60;99.90;;;;;;10452607;28;20021;-82
2022/06/07 04:28:07;;;;;;;37.78;24.17;;;15.80;99.90;;;;;;10451099;28;20024;-82
2022/06/07 04:33:08;;;;;;;32.90;21.27;;;15.90;99.90;;;;;;10438701;28;20056;-84
2022/06/07 04:38:09;;;;;;;34.22;22.35;;;16.10;99.90;;;;;;10424095;28;20176;-83
2022/06/07 04:43:10;;;;;;;37.90;25.02;;;16.30;99.90;;;;;;10443610;28;20548;-85
2022/06/07 04:48:11;;;;;;;33.92;23.50;;;16.40;99.90;;;;;;10457046;28;20056;-82
2022/06/07 04:53:12;;;;;;;45.70;27.08;;;16.60;99.90;;;;;;10433534;28;20056;-83
2022/06/07 04:58:13;;;;;;;41.05;25.88;;;16.80;99.90;;;;;;10458058;28;20062;-82
2022/06/07 05:03:13;;;;;;;45.35;27.52;;;17.00;99.90;;;;;;10449220;28;20037;-85
2022/06/07 05:08:14;;;;;;;33.90;24.30;;;17.10;99.90;;;;;;10449267;28;20028;-83
2022/06/07 05:13:15;;;;;;;36.33;23.25;;;17.30;99.90;;;;;;10465045;28;20370;-83
2022/06/07 05:18:15;;;;;;;32.38;21.40;;;17.50;99.90;;;;;;10443815;28;20033;-84
2022/06/07 05:23:16;;;;;;;30.00;20.88;;;17.70;99.90;;;;;;10451254;28;20037;-85
2022/06/07 05:28:17;;;;;;;30.33;19.10;;;17.90;99.90;;;;;;10442809;28;20036;-82
2022/06/07 05:33:17;;;;;;;27.98;19.58;;;18.00;99.90;;;;;;10449570;28;20086;-83
2022/06/07 05:38:18;;;;;;;21.25;15.10;;;18.10;99.90;;;;;;10448688;28;20032;-84
2022/06/07 05:43:19;;;;;;;24.27;17.33;;;18.30;99.90;;;;;;10441589;28;20032;-82
2022/06/07 05:48:20;;;;;;;28.00;15.63;;;18.50;99.90;;;;;;10448620;28;20036;-84
2022/06/07 05:53:21;;;;;;;25.10;16.00;;;18.70;99.90;;;;;;10442495;28;20045;-84
2022/06/07 05:58:23;;;;;;;25.30;16.33;;;18.90;99.90;;;;;;10440750;28;20076;-84
2022/06/07 06:03:23;;;;;;;20.95;14.55;;;19.20;99.90;;;;;;10442992;28;20025;-83
2022/06/07 06:13:44;;;;;;;19.42;13.80;;;19.60;99.90;;;;;;10448188;28;20045;-85
2022/06/07 06:18:50;;;;;;;21.92;13.57;;;19.70;99.90;;;;;;10441612;28;20037;-84
2022/06/07 06:23:51;;;;;;;20.00;13.57;;;20.00;99.90;;;;;;10445987;28;20029;-82
2022/06/07 06:28:52;;;;;;;19.77;13.73;;;20.20;99.90;;;;;;10443911;28;20032;-84
2022/06/07 06:33:54;;;;;;;17.95;12.02;;;20.50;99.90;;;;;;10449279;28;20028;-82
2022/06/07 06:38:55;;;;;;;16.67;12.40;;;20.80;99.90;;;;;;10450354;28;20036;-83
2022/06/07 06:43:58;;;;;;;16.38;12.63;;;21.20;99.90;;;;;;10443394;28;20025;-84
2022/06/07 06:48:59;;;;;;;20.90;12.40;;;21.70;99.90;;;;;;10447231;28;20021;-83
2022/06/07 06:54:01;;;;;;;19.83;12.88;;;22.50;99.90;;;;;;10444197;28;20040;-83
2022/06/07 06:59:02;;;;;;;18.35;10.90;;;23.40;99.90;;;;;;10447438;28;20039;-83
2022/06/07 07:04:06;;;;;;;15.40;10.13;;;24.60;99.90;;;;;;10445769;28;20472;-83
2022/06/07 07:09:08;;;;;;;14.57;10.18;;;25.90;95.80;;;;;;10445186;28;20021;-82
2022/06/07 07:14:10;;;;;;;17.67;10.77;;;26.60;91.30;;;;;;10455349;28;20035;-85
2022/06/07 07:19:12;;;;;;;15.50;11.55;;;27.20;87.60;;;;;;10433998;28;20291;-81
2022/06/07 07:24:19;;;;;;;18.73;9.82;;;27.70;83.40;;;;;;10426796;28;20508;-84
2022/06/07 07:29:22;;;;;;;13.50;8.82;;;27.90;81.70;;;;;;10432730;28;20041;-81
2022/06/07 07:34:22;;;;;;;14.30;9.57;;;28.00;81.40;;;;;;10445508;28;20037;-80
2022/06/07 07:39:24;;;;;;;11.10;6.93;;;27.90;80.40;;;;;;10438031;28;20036;-81
2022/06/07 07:44:27;;;;;;;11.40;6.93;;;28.00;81.00;;;;;;10455156;28;20040;-81
2022/06/07 07:49:30;;;;;;;8.27;5.88;;;28.10;80.60;;;;;;10450945;28;20024;-81
2022/06/07 07:54:31;;;;;;;7.45;5.43;;;27.90;80.20;;;;;;10445916;28;20463;-81
2022/06/07 07:59:31;;;;;;;6.93;5.50;;;27.60;78.80;;;;;;10461146;28;20116;-81
2022/06/07 08:04:32;;;;;;;11.98;6.07;;;27.40;80.70;;;;;;10454634;28;20512;-81
2022/06/07 08:09:32;;;;;;;12.55;5.47;;;27.30;81.00;;;;;;10447813;28;20137;-80
2022/06/07 08:14:34;;;;;;;9.40;5.47;;;27.40;81.60;;;;;;10452967;28;20403;-81
2022/06/07 08:19:35;;;;;;;9.50;5.38;;;27.60;82.70;;;;;;10437511;28;20371;-80
2022/06/07 08:24:37;;;;;;;5.63;4.70;;;27.50;79.80;;;;;;10449001;28;20041;-84
2022/06/07 08:29:38;;;;;;;6.80;4.20;;;27.50;79.20;;;;;;10453041;28;20029;-83
2022/06/07 08:39:58;;;;;;;4.50;3.65;;;27.90;78.70;;;;;;10455506;28;20049;-84
2022/06/07 08:45:05;;;;;;;4.43;4.03;;;28.10;77.00;;;;;;10447040;28;20413;-82
2022/06/07 08:50:39;;;;;;;4.88;3.92;;;28.20;76.40;;;;;;10448028;28;20029;-85
2022/06/07 08:55:52;;;;;;;4.40;3.73;;;28.30;75.80;;;;;;10450276;28;20059;-82
2022/06/07 09:00:59;;;;;;;4.28;3.88;;;28.20;76.00;;;;;;10443098;28;20029;-82
2022/06/07 09:06:03;;;;;;;6.40;4.07;;;28.30;76.20;;;;;;10445977;28;20495;-84
2022/06/07 09:16:25;;;;;;;7.32;3.83;;;28.40;72.90;;;;;;10454464;28;20041;-84
2022/06/07 09:21:30;;;;;;;3.03;2.70;;;28.30;69.40;;;;;;10469320;28;20044;-85
2022/06/07 09:26:38;;;;;;;4.00;3.30;;;28.40;75.40;;;;;;10446778;28;20029;-82
2022/06/07 09:31:41;;;;;;;3.70;3.20;;;28.70;72.50;;;;;;10450331;28;20025;-84
2022/06/07 09:36:43;;;;;;;4.65;3.25;;;28.70;71.60;;;;;;10434683;28;20109;-82
2022/06/07 09:41:51;;;;;;;3.40;3.10;;;28.90;70.40;;;;;;10448315;28;20032;-82
2022/06/07 09:47:00;;;;;;;4.85;3.53;;;28.80;71.40;;;;;;10463843;28;20028;-82
2022/06/07 09:52:25;;;;;;;4.28;3.10;;;29.10;72.40;;;;;;10434169;28;20078;-82
2022/06/07 09:57:47;;;;;;;4.63;3.30;;;29.40;72.50;;;;;;10447450;28;20133;-82
2022/06/07 10:03:16;;;;;;;3.58;2.95;;;29.70;69.90;;;;;;10444948;28;20136;-82
2022/06/07 10:08:34;;;;;;;5.70;3.00;;;29.80;70.50;;;;;;10428649;28;20742;-80
2022/06/07 10:14:04;;;;;;;5.10;3.33;;;30.20;71.00;;;;;;10438264;28;20120;-82
2022/06/07 10:19:09;;;;;;;3.50;2.70;;;30.20;68.10;;;;;;10435948;28;20782;-81
2022/06/07 10:24:24;;;;;;;5.15;3.45;;;30.20;68.90;;;;;;10438282;28;20030;-83
2022/06/07 10:29:34;;;;;;;4.20;3.13;;;30.40;69.20;;;;;;10446200;28;20541;-86
2022/06/07 10:34:41;;;;;;;5.38;3.00;;;30.60;68.00;;;;;;10446706;28;20040;-82
2022/06/07 10:39:56;;;;;;;4.88;3.15;;;30.70;66.70;;;;;;10445768;28;20032;-83
2022/06/07 10:45:03;;;;;;;4.38;3.33;;;30.40;64.60;;;;;;10446655;28;20370;-83
2022/06/07 10:50:18;;;;;;;4.13;2.90;;;30.40;64.80;;;;;;10445521;28;20017;-86
2022/06/07 10:55:59;;;;;;;3.67;2.90;;;30.10;66.50;;;;;;10446024;28;20060;-83
2022/06/07 11:01:15;;;;;;;4.68;2.90;;;30.00;66.60;;;;;;10449497;28;20041;-82
2022/06/07 11:12:02;;;;;;;3.17;2.78;;;29.10;68.60;;;;;;10445453;28;20028;-83
2022/06/07 11:17:23;;;;;;;3.30;3.00;;;29.80;66.10;;;;;;10451068;28;20090;-86
2022/06/07 11:22:33;;;;;;;3.80;3.17;;;30.40;64.00;;;;;;10438149;28;20397;-83
2022/06/07 11:27:34;;;;;;;4.00;2.90;;;30.60;64.80;;;;;;10458105;28;20029;-83
2022/06/07 11:32:48;;;;;;;7.07;2.92;;;30.80;61.30;;;;;;10446686;28;20037;-83
2022/06/07 11:37:52;;;;;;;3.20;2.97;;;30.80;65.50;;;;;;10446454;28;20029;-84
2022/06/07 11:42:52;;;;;;;;;;;30.90;62.50;;;;;;10446021;28;20078;-86
2022/06/07 11:48:20;;;;;;;4.90;3.45;;;29.90;59.70;;;;;;10446390;28;20007;-85
2022/06/07 11:53:34;;;;;;;6.63;3.30;;;29.10;62.40;;;;;;10446452;28;20069;-85
2022/06/07 11:59:00;;;;;;;3.20;3.00;;;29.40;63.30;;;;;;10451350;28;20040;-85
2022/06/07 12:04:33;;;;;;;3.60;3.30;;;29.40;63.20;;;;;;10442061;28;20119;-84
2022/06/07 12:09:35;;;;;;;3.35;3.05;;;28.70;65.00;;;;;;10463867;28;20257;-84
2022/06/07 12:14:40;;;;;;;3.80;3.10;;;28.00;64.70;;;;;;10451008;28;20126;-84
2022/06/07 12:19:45;;;;;;;3.75;3.00;;;28.20;67.80;;;;;;10464261;28;20545;-84
2022/06/07 12:24:59;;;;;;;3.33;2.90;;;29.10;65.60;;;;;;10453814;28;20025;-87
2022/06/07 12:30:18;;;;;;;4.78;2.47;;;29.70;63.50;;;;;;10451301;28;20068;-84
2022/06/07 12:35:28;;;;;;;3.40;2.40;;;30.20;63.50;;;;;;10454742;28;20169;-84
2022/06/07 12:40:45;;;;;;;4.07;2.88;;;30.50;64.00;;;;;;10450418;28;20032;-87
2022/06/07 12:45:58;;;;;;;3.08;2.40;;;30.20;56.20;;;;;;10450999;28;20552;-87
2022/06/07 12:50:58;;;;;;;3.85;2.80;;;29.30;58.70;;;;;;10449188;28;20146;-84
2022/06/07 12:56:11;;;;;;;5.40;2.80;;;29.20;58.70;;;;;;10450540;28;20118;-83
2022/06/07 13:01:41;;;;;;;3.97;2.92;;;29.20;58.50;;;;;;10448462;28;20016;-86
2022/06/07 13:07:16;;;;;;;2.63;2.42;;;29.70;60.70;;;;;;10448335;28;20551;-85
2022/06/07 13:12:27;;;;;;;;;;;29.80;58.90;;;;;;10439433;28;20064;-84
2022/06/07 13:17:36;;;;;;;3.53;2.80;;;30.00;60.00;;;;;;10449827;28;19934;-85
2022/06/07 13:22:39;;;;;;;4.97;3.53;;;29.80;60.30;;;;;;10449993;28;20476;-84
2022/06/07 13:27:48;;;;;;;3.30;2.97;;;29.70;58.00;;;;;;10449847;28;20033;-85
2022/06/07 13:33:07;;;;;;;3.85;3.20;;;29.10;60.10;;;;;;10449186;28;20078;-84
2022/06/07 13:38:35;;;;;;;4.38;3.40;;;28.50;63.40;;;;;;10436794;28;20017;-84
2022/06/07 13:43:59;;;;;;;4.13;3.17;;;28.20;64.70;;;;;;10449070;28;20083;-84
2022/06/07 13:54:25;;;;;;;3.80;3.40;;;27.50;64.00;;;;;;10448472;28;20140;-86
2022/06/07 13:59:27;;;;;;;4.03;3.53;;;27.30;65.90;;;;;;10447865;28;20155;-83
2022/06/07 14:04:31;;;;;;;4.78;3.45;;;27.40;67.00;;;;;;10448134;28;20040;-83
2022/06/07 14:09:32;;;;;;;6.75;4.55;;;27.40;66.90;;;;;;10448196;28;20724;-82
2022/06/07 14:14:34;;;;;;;5.25;4.43;;;27.10;69.00;;;;;;10447829;28;20027;-86
2022/06/07 14:19:46;;;;;;;4.75;4.05;;;27.10;69.10;;;;;;10445823;28;20126;-85
2022/06/07 14:24:48;;;;;;;5.63;4.45;;;27.10;68.90;;;;;;10445605;28;20025;-83
2022/06/07 14:29:49;;;;;;;5.28;4.78;;;27.10;71.30;;;;;;10450575;28;20032;-84
2022/06/07 14:34:50;;;;;;;5.93;4.63;;;27.10;71.40;;;;;;10450028;28;20662;-83
2022/06/07 14:39:51;;;;;;;4.80;4.30;;;27.00;71.30;;;;;;10447023;28;20558;-85
2022/06/07 14:44:52;;;;;;;6.35;4.57;;;26.70;72.00;;;;;;10447365;28;20037;-83
2022/06/07 14:49:55;;;;;;;4.90;4.53;;;26.40;73.30;;;;;;10444818;28;20033;-84
2022/06/07 14:54:56;;;;;;;6.22;4.63;;;26.40;72.50;;;;;;10445873;28;20102;-83
2022/06/07 14:59:57;;;;;;;7.20;5.18;;;26.40;72.00;;;;;;10446359;28;20546;-86
2022/06/07 15:05:08;;;;;;;7.47;5.38;;;26.40;72.50;;;;;;10445324;28;20024;-83
2022/06/07 15:10:11;;;;;;;6.75;5.15;;;26.40;73.70;;;;;;10450180;28;20162;-83
2022/06/07 15:15:12;;;;;;;6.38;4.95;;;26.40;72.50;;;;;;10455911;28;20024;-85
2022/06/07 15:20:24;;;;;;;5.63;4.70;;;26.40;72.40;;;;;;10446607;28;21354;-85
2022/06/07 15:25:28;;;;;;;5.32;4.82;;;26.40;72.90;;;;;;10445009;28;20032;-81
2022/06/07 15:30:29;;;;;;;5.80;5.03;;;26.30;75.00;;;;;;10456010;28;20090;-82
2022/06/07 15:35:30;;;;;;;5.10;4.68;;;26.10;74.50;;;;;;10471562;28;20649;-83
2022/06/07 15:40:30;;;;;;;7.72;5.07;;;26.00;75.80;;;;;;10457363;28;20027;-83
2022/06/07 15:45:51;;;;;;;5.85;5.00;;;25.80;76.40;;;;;;10470241;28;20021;-83
2022/06/07 15:50:59;;;;;;;9.10;5.53;;;25.60;77.10;;;;;;10452452;28;20045;-85
2022/06/07 15:56:05;;;;;;;10.00;5.25;;;25.30;76.90;;;;;;10461688;28;20037;-84
2022/06/07 16:01:06;;;;;;;6.32;4.38;;;25.00;76.40;;;;;;10454545;28;20068;-86
2022/06/07 16:06:07;;;;;;;7.25;4.55;;;24.80;75.40;;;;;;10460679;28;20017;-84
2022/06/07 16:11:08;;;;;;;5.40;4.40;;;24.70;75.20;;;;;;10459495;28;20488;-86
2022/06/07 16:16:09;;;;;;;5.28;4.68;;;24.60;74.80;;;;;;10454385;28;20031;-83
2022/06/07 16:21:10;;;;;;;5.65;5.10;;;24.50;77.90;;;;;;10451447;28;20535;-82
2022/06/07 16:26:11;;;;;;;5.47;4.95;;;24.40;78.30;;;;;;10452421;28;20055;-87
2022/06/07 16:36:34;;;;;;;8.55;5.20;;;23.10;85.50;;;;;;10448732;28;20040;-83
2022/06/07 16:41:35;;;;;;;11.50;5.47;;;22.50;88.50;;;;;;10448517;28;20116;-84
2022/06/07 16:46:45;;;;;;;9.20;6.57;;;22.10;90.30;;;;;;10448156;28;20068;-86
2022/06/07 16:51:47;;;;;;;6.93;4.47;;;21.50;98.90;;;;;;10452225;28;20378;-80
2022/06/07 16:56:49;;;;;;;5.68;4.13;;;20.90;99.90;;;;;;10451203;28;20049;-82
2022/06/07 17:01:50;;;;;;;9.82;5.18;;;20.20;99.90;;;;;;10448940;28;20685;-83
2022/06/07 17:06:51;;;;;;;9.73;6.25;;;19.70;99.90;;;;;;10453450;28;20085;-82
2022/06/07 17:11:52;;;;;;;13.07;8.57;;;18.80;99.90;;;;;;10450622;28;20036;-82
2022/06/07 17:16:53;;;;;;;23.75;13.60;;;18.20;99.90;;;;;;10448221;28;20116;-82
2022/06/07 17:21:54;;;;;;;13.85;9.90;;;17.80;99.90;;;;;;10457515;28;20043;-82
2022/06/07 17:26:54;;;;;;;20.42;13.40;;;17.60;99.90;;;;;;10449606;28;20025;-82
2022/06/07 17:31:55;;;;;;;15.50;9.77;;;17.40;99.90;;;;;;10447790;28;20396;-81
2022/06/07 17:36:56;;;;;;;15.23;10.32;;;17.20;99.90;;;;;;10448159;28;20503;-84
2022/06/07 17:41:57;;;;;;;13.32;10.13;;;17.10;99.90;;;;;;10445471;28;20036;-84
2022/06/07 17:46:57;;;;;;;11.52;9.13;;;17.10;99.90;;;;;;10413388;28;20025;-84
2022/06/07 17:51:58;;;;;;;15.93;10.43;;;17.10;99.90;;;;;;10434398;28;20495;-81
2022/06/07 17:56:59;;;;;;;17.02;10.95;;;17.20;99.90;;;;;;10416423;28;20549;-86
2022/06/07 18:01:59;;;;;;;20.10;14.73;;;17.30;99.90;;;;;;10410704;28;20094;-82
2022/06/07 18:07:00;;;;;;;24.60;15.88;;;17.40;99.90;;;;;;10417669;28;20450;-82
2022/06/07 18:12:01;;;;;;;23.75;14.35;;;17.50;99.90;;;;;;10435143;28;20077;-82
2022/06/07 18:17:02;;;;;;;28.27;13.63;;;17.60;99.90;;;;;;10445032;28;20157;-85
2022/06/07 18:22:04;;;;;;;11.40;6.88;;;17.50;99.90;;;;;;10434613;28;20504;-83
2022/06/07 18:27:04;;;;;;;11.57;6.60;;;17.30;99.90;;;;;;10415863;28;20036;-85
2022/06/07 18:32:05;;;;;;;13.07;6.97;;;17.00;99.90;;;;;;10437366;28;20029;-82
2022/06/07 18:37:06;;;;;;;9.30;6.25;;;16.80;99.90;;;;;;10446169;28;20033;-84
2022/06/07 18:42:08;;;;;;;12.57;7.38;;;16.60;99.90;;;;;;10447596;28;20095;-82
2022/06/07 18:47:11;;;;;;;22.17;8.88;;;16.50;99.90;;;;;;10444074;28;20025;-84
2022/06/07 18:52:15;;;;;;;16.75;10.00;;;16.40;99.90;;;;;;10445875;28;20033;-84
2022/06/07 18:57:16;;;;;;;13.38;9.35;;;16.50;99.90;;;;;;10456562;28;20114;-83
2022/06/07 19:02:22;;;;;;;14.48;9.75;;;16.50;99.90;;;;;;10448582;28;20029;-84
2022/06/07 19:07:22;;;;;;;;;;;16.60;99.90;;;;;;10443305;28;20027;-85
2022/06/07 19:12:23;;;;;;;14.77;8.30;;;16.60;99.90;;;;;;10458250;28;20335;-83
2022/06/07 19:17:24;;;;;;;18.55;10.82;;;16.60;99.90;;;;;;10441602;28;20590;-83
2022/06/07 19:22:24;;;;;;;15.13;10.57;;;16.60;99.90;;;;;;10441206;28;20067;-80
2022/06/07 19:27:25;;;;;;;14.90;10.50;;;16.60;99.90;;;;;;10443652;28;20071;-85
2022/06/07 19:32:26;;;;;;;24.10;14.45;;;16.60;99.90;;;;;;10441505;28;20040;-84
2022/06/07 19:37:31;;;;;;;27.60;16.00;;;16.60;99.90;;;;;;10442052;28;20108;-84
2022/06/07 19:42:31;;;;;;;136.32;34.85;;;16.60;99.90;;;;;;10443207;28;20029;-83
2022/06/07 19:47:32;;;;;;;41.28;19.73;;;16.70;99.90;;;;;;10443015;28;20426;-85
2022/06/07 19:52:37;;;;;;;26.45;15.85;;;16.70;99.90;;;;;;10450432;28;20044;-83
2022/06/07 19:57:39;;;;;;;19.25;13.55;;;16.70;99.90;;;;;;10416798;28;1147746;-82
2022/06/07 20:02:41;;;;;;;41.88;21.05;;;16.60;99.90;;;;;;10439066;28;20028;-85
2022/06/07 20:07:43;;;;;;;84.53;28.60;;;16.50;99.90;;;;;;10443229;28;20024;-83
2022/06/07 20:12:44;;;;;;;50.30;22.90;;;16.50;99.90;;;;;;10444763;28;20025;-83
2022/06/07 20:17:48;;;;;;;85.05;30.33;;;16.40;99.90;;;;;;10446697;28;20033;-82
2022/06/07 20:22:49;;;;;;;59.97;26.67;;;16.40;99.90;;;;;;10463052;28;20113;-84
2022/06/07 20:27:50;;;;;;;42.22;25.15;;;16.50;99.90;;;;;;10451010;28;20025;-82
2022/06/07 20:32:52;;;;;;;50.05;26.30;;;16.50;99.90;;;;;;10451456;28;20136;-84
2022/06/07 20:37:56;;;;;;;75.00;33.38;;;16.60;99.90;;;;;;10457060;28;20039;-83
2022/06/07 20:42:56;;;;;;;42.25;25.08;;;16.60;99.90;;;;;;10452420;28;20048;-83
2022/06/07 20:47:57;;;;;;;54.20;27.75;;;16.70;99.90;;;;;;10449619;28;20017;-83
2022/06/07 20:52:58;;;;;;;32.55;21.08;;;16.60;99.90;;;;;;10464345;28;20040;-84
2022/06/07 20:57:58;;;;;;;33.33;21.27;;;16.60;99.90;;;;;;10450107;28;20075;-83
2022/06/07 21:03:00;;;;;;;42.92;24.38;;;16.60;99.90;;;;;;10448144;28;20025;-85
2022/06/07 21:08:02;;;;;;;47.72;26.52;;;16.60;99.90;;;;;;10444003;28;20029;-84
2022/06/07 21:13:03;;;;;;;67.95;30.50;;;16.60;99.90;;;;;;10452361;28;20115;-84
2022/06/07 21:18:05;;;;;;;38.95;24.45;;;16.60;99.90;;;;;;10447103;28;20028;-83
2022/06/07 21:23:08;;;;;;;54.67;28.58;;;16.60;99.90;;;;;;10448251;28;20056;-86
2022/06/07 21:28:09;;;;;;;44.97;28.27;;;16.70;99.90;;;;;;10446386;28;20020;-83
2022/06/07 21:33:12;;;;;;;42.13;24.75;;;16.70;99.90;;;;;;10457443;28;20045;-85
2022/06/07 21:38:12;;;;;;;42.30;23.67;;;16.70;99.90;;;;;;10455844;28;20025;-84
2022/06/07 21:43:17;;;;;;;32.65;21.13;;;16.60;99.90;;;;;;10456677;28;20037;-82
2022/06/07 21:48:21;;;;;;;26.98;18.98;;;16.60;99.90;;;;;;10447941;28;20078;-81
2022/06/07 21:53:23;;;;;;;25.85;17.88;;;16.60;99.90;;;;;;10462605;28;20036;-81
2022/06/07 21:58:24;;;;;;;56.67;28.10;;;16.50;99.90;;;;;;10447429;28;20059;-82
2022/06/07 22:03:25;;;;;;;36.92;23.08;;;16.50;99.90;;;;;;10448352;28;20039;-81
2022/06/07 22:08:27;;;;;;;35.90;22.02;;;16.40;99.90;;;;;;10448027;28;20040;-82
2022/06/07 22:13:30;;;;;;;39.83;23.20;;;16.30;99.90;;;;;;10447274;28;20090;-82
2022/06/07 22:18:30;;;;;;;38.00;21.35;;;16.30;99.90;;;;;;10446803;28;20029;-84
2022/06/07 22:23:31;;;;;;;31.40;19.40;;;16.30;99.90;;;;;;10459706;28;20032;-84
2022/06/07 22:33:51;;;;;;;39.70;21.02;;;16.20;99.90;;;;;;10446122;28;20033;-85
2022/06/07 22:38:52;;;;;;;32.80;20.00;;;16.10;99.90;;;;;;10454258;28;20025;-83
2022/06/07 22:43:53;;;;;;;49.30;24.70;;;16.00;99.90;;;;;;10448250;28;20057;-84
2022/06/07 22:48:53;;;;;;;47.58;26.48;;;16.00;99.90;;;;;;10452929;28;20033;-85
2022/06/07 22:54:04;;;;;;;40.35;24.23;;;16.00;99.90;;;;;;10447603;28;20030;-85
2022/06/07 22:59:19;;;;;;;38.00;23.98;;;16.00;99.90;;;;;;10456262;28;20029;-85
2022/06/07 23:04:31;;;;;;;37.67;22.58;;;16.00;99.90;;;;;;10445688;28;20083;-82
2022/06/07 23:09:32;;;;;;;44.60;25.23;;;16.00;99.90;;;;;;10446219;28;20063;-82
2022/06/07 23:19:58;;;;;;;66.22;31.33;;;16.00;99.90;;;;;;10443434;28;20120;-82
2022/06/07 23:24:59;;;;;;;50.35;27.42;;;15.90;99.90;;;;;;10454611;28;20029;-82
2022/06/07 23:30:00;;;;;;;46.63;25.88;;;15.90;99.90;;;;;;10445358;28;20103;-82
2022/06/07 23:35:00;;;;;;;39.97;22.98;;;16.00;99.90;;;;;;10444768;28;20029;-81
2022/06/07 23:40:04;;;;;;;38.25;21.88;;;16.00;99.90;;;;;;10449811;28;20051;-82
2022/06/07 23:45:06;;;;;;;33.75;19.63;;;16.00;99.90;;;;;;10445856;28;20017;-84
2022/06/07 23:50:20;;;;;;;38.13;21.40;;;16.00;99.90;;;;;;10438861;28;20034;-83
2022/06/07 23:55:21;;;;;;;39.42;20.40;;;15.80;99.90;;;;;;10427786;28;20151;-82
